createdAt,value
2024-04-19T00:01:12.834Z,77.3
2024-04-19T00:02:22.000Z,77.3
2024-04-19T00:03:45.221Z,76.9
2024-04-19T00:05:01.415Z,77
2024-04-19T00:06:17.609Z,77.4
2024-04-19T00:07:33.803Z,77.6
2024-04-19T00:08:49.997Z,77.6
2024-04-19T00:10:06.191Z,77.3
2024-04-19T00:11:22.384Z,77.2
2024-04-19T00:12:38.578Z,77.1
2024-04-19T00:13:54.771Z,77.6
2024-04-19T00:15:10.965Z,77.3
2024-04-19T00:16:27.159Z,77.4
2024-04-19T00:17:42.369Z,77.2
2024-04-19T00:18:58.563Z,77.2
2024-04-19T00:20:14.756Z,77.3
2024-04-19T00:21:30.950Z,77.3
2024-04-19T00:22:47.144Z,77
2024-04-19T00:24:03.337Z,77
2024-04-19T00:25:19.531Z,77
2024-04-19T00:26:29.000Z,77
2024-04-19T00:27:51.918Z,77.3
2024-04-19T00:29:08.111Z,77.2
2024-04-19T00:30:24.305Z,77
2024-04-19T00:31:40.499Z,77.3
2024-04-19T00:32:56.692Z,77
2024-04-19T00:34:11.903Z,76.8
2024-04-19T00:35:28.096Z,76.6
2024-04-19T00:36:44.289Z,77
2024-04-19T00:38:00.483Z,76.8
2024-04-19T00:39:16.677Z,76.6
2024-04-19T00:40:32.871Z,76.5
2024-04-19T00:41:49.065Z,76.6
2024-04-19T00:43:05.258Z,76.8
2024-04-19T00:44:21.452Z,76.5
2024-04-19T00:45:37.646Z,77
2024-04-19T00:46:53.839Z,76.8
2024-04-19T00:48:10.033Z,76.4
2024-04-19T00:49:26.228Z,75.8
2024-04-19T00:50:41.437Z,75.9
2024-04-19T00:51:57.631Z,75.7
2024-04-19T00:53:13.825Z,76
2024-04-19T00:54:30.018Z,75.7
2024-04-19T00:55:46.212Z,75.6
2024-04-19T00:57:02.405Z,76.1
2024-04-19T00:59:34.792Z,76.5
2024-04-19T01:00:50.986Z,75.7
2024-04-19T01:02:07.180Z,75.9
2024-04-19T01:03:23.374Z,76.1
2024-04-19T01:04:39.567Z,76.3
2024-04-19T01:05:55.761Z,76.5
2024-04-19T01:07:10.971Z,75.5
2024-04-19T01:08:27.164Z,75.2
2024-04-19T01:09:43.358Z,76
2024-04-19T01:10:59.805Z,76.3
2024-04-19T01:12:15.746Z,76.2
2024-04-19T01:13:31.940Z,75.9
2024-04-19T01:14:48.133Z,75.5
2024-04-19T01:16:04.327Z,74.9
2024-04-19T01:17:20.520Z,74.8
2024-04-19T01:18:36.714Z,75.6
2024-04-19T01:19:52.908Z,75.7
2024-04-19T01:21:09.101Z,75.2
2024-04-19T01:22:25.296Z,75
2024-04-19T01:24:56.699Z,74.8
2024-04-19T01:26:13.139Z,74.2
2024-04-19T01:27:29.087Z,74.2
2024-04-19T01:28:45.280Z,75
2024-04-19T01:30:01.474Z,73.7
2024-04-19T01:31:17.667Z,73.5
2024-04-19T01:32:33.861Z,73.5
2024-04-19T01:33:50.055Z,73.5
2024-04-19T01:35:06.248Z,73.7
2024-04-19T01:36:22.442Z,73.3
2024-04-19T01:37:38.635Z,73.6
2024-04-19T01:38:54.829Z,73.6
2024-04-19T01:40:10.040Z,73.3
2024-04-19T01:41:26.233Z,73
2024-04-19T01:42:42.426Z,73.1
2024-04-19T01:43:58.620Z,73.3
2024-04-19T01:45:14.814Z,73.1
2024-04-19T01:46:31.008Z,73.4
2024-04-19T01:47:47.202Z,73.4
2024-04-19T01:49:03.395Z,73.3
2024-04-19T01:50:19.589Z,73.1
2024-04-19T01:51:35.783Z,73
2024-04-19T01:52:51.976Z,73
2024-04-19T01:54:08.170Z,72.4
2024-04-19T01:55:24.364Z,72.4
2024-04-19T01:56:39.574Z,72.5
2024-04-19T01:57:55.768Z,72.1
2024-04-19T01:59:11.962Z,71.7
2024-04-19T02:00:28.155Z,71.3
2024-04-19T02:01:44.349Z,71.1
2024-04-19T02:03:00.542Z,70.6
2024-04-19T02:04:16.736Z,70
2024-04-19T02:05:32.929Z,70.1
2024-04-19T02:08:05.316Z,69
2024-04-19T02:09:21.510Z,68.3
2024-04-19T02:10:37.704Z,68.8
2024-04-19T02:11:53.898Z,67.3
2024-04-19T02:13:09.108Z,67.1
2024-04-19T02:14:25.301Z,67
2024-04-19T02:15:41.495Z,66.8
2024-04-19T02:16:57.688Z,66.7
2024-04-19T02:18:13.883Z,66.8
2024-04-19T02:19:30.077Z,66.6
2024-04-19T02:20:46.270Z,66.3
2024-04-19T02:22:02.464Z,67.1
2024-04-19T02:23:18.657Z,66.5
2024-04-19T02:24:34.851Z,66.7
2024-04-19T02:25:51.044Z,67.2
2024-04-19T02:27:07.238Z,67.6
2024-04-19T02:28:23.433Z,67.3
2024-04-19T02:29:39.626Z,68.1
2024-04-19T02:30:54.837Z,68.1
2024-04-19T02:32:11.030Z,68.7
2024-04-19T02:33:27.223Z,69
2024-04-19T02:34:43.417Z,68.8
2024-04-19T02:35:59.610Z,69.1
2024-04-19T02:37:15.804Z,70
2024-04-19T02:38:32.116Z,71.3
2024-04-19T02:39:48.309Z,72.1
2024-04-19T02:41:04.504Z,70.9
2024-04-19T02:42:20.697Z,71.7
2024-04-19T02:43:36.891Z,72
2024-04-19T02:44:53.085Z,71.5
2024-04-19T02:46:09.278Z,71.9
2024-04-19T02:47:24.488Z,72.8
2024-04-19T02:48:40.682Z,73
2024-04-19T02:49:56.875Z,72.5
2024-04-19T02:51:13.069Z,73.3
2024-04-19T02:52:29.263Z,73.1
2024-04-19T02:53:45.456Z,73.3
2024-04-19T02:55:01.650Z,72.9
2024-04-19T02:56:17.843Z,72.6
2024-04-19T02:57:34.037Z,72.8
2024-04-19T02:58:50.231Z,72.5
2024-04-19T03:00:06.424Z,72.1
2024-04-19T03:01:22.618Z,73.1
2024-04-19T03:02:38.812Z,72.7
2024-04-19T03:03:54.022Z,72.7
2024-04-19T03:05:10.215Z,72
2024-04-19T03:06:26.409Z,72.4
2024-04-19T03:07:42.602Z,72.5
2024-04-19T03:08:58.796Z,73.8
2024-04-19T03:10:14.989Z,74.5
2024-04-19T03:11:31.183Z,74.3
2024-04-19T03:12:47.376Z,74.8
2024-04-19T03:14:03.571Z,74.6
2024-04-19T03:15:19.764Z,74.7
2024-04-19T03:16:35.958Z,74.3
2024-04-19T03:17:52.152Z,73.7
2024-04-19T03:19:08.345Z,74.1
2024-04-19T03:20:23.555Z,74.1
2024-04-19T03:21:39.749Z,75
2024-04-19T03:22:55.942Z,74.8
2024-04-19T03:24:05.000Z,75.5
2024-04-19T03:25:28.330Z,75.3
2024-04-19T03:26:44.523Z,74.7
2024-04-19T03:28:00.717Z,75.3
2024-04-19T03:29:16.910Z,74.3
2024-04-19T03:30:33.104Z,74.7
2024-04-19T03:31:49.298Z,74.7
2024-04-19T03:32:58.000Z,75.3
2024-04-19T03:34:21.685Z,74.6
2024-04-19T03:35:37.879Z,73.5
2024-04-19T03:36:54.072Z,73.9
2024-04-19T03:38:09.282Z,74.3
2024-04-19T03:39:25.476Z,74.9
2024-04-19T03:40:41.669Z,73.9
2024-04-19T03:41:57.863Z,73.8
2024-04-19T03:43:14.056Z,73.4
2024-04-19T03:44:30.250Z,73.5
2024-04-19T03:45:39.000Z,72.9
2024-04-19T03:47:02.638Z,74
2024-04-19T03:48:18.832Z,74.4
2024-04-19T03:49:35.025Z,74.1
2024-04-19T03:50:51.219Z,74.8
2024-04-19T03:52:07.413Z,74.4
2024-04-19T03:53:23.606Z,74.6
2024-04-19T03:54:38.817Z,74.8
2024-04-19T03:55:55.010Z,75
2024-04-19T03:57:11.203Z,75.3
2024-04-19T03:58:20.000Z,74.9
2024-04-19T03:59:43.590Z,75.5
2024-04-19T04:00:59.784Z,75.5
2024-04-19T04:02:15.978Z,75.5
2024-04-19T04:03:32.171Z,76.3
2024-04-19T04:04:48.365Z,76
2024-04-19T04:06:04.559Z,76.3
2024-04-19T04:07:20.752Z,76.2
2024-04-19T04:08:36.946Z,77.2
2024-04-19T04:09:53.139Z,77.6
2024-04-19T04:11:08.349Z,77.4
2024-04-19T04:12:24.543Z,78
2024-04-19T04:13:40.737Z,78.4
2024-04-19T04:14:56.930Z,78
2024-04-19T04:16:12.145Z,77.7
2024-04-19T04:17:28.339Z,78.8
2024-04-19T04:18:44.533Z,78.8
2024-04-19T04:20:00.726Z,78.7
2024-04-19T04:21:16.920Z,79
2024-04-19T04:22:33.113Z,79.8
2024-04-19T04:23:49.307Z,79.4
2024-04-19T04:25:05.501Z,79.8
2024-04-19T04:26:21.695Z,79.9
2024-04-19T04:27:37.888Z,79.9
2024-04-19T04:28:54.082Z,80.3
2024-04-19T04:30:10.275Z,80.2
2024-04-19T04:31:26.469Z,79.7
2024-04-19T04:32:41.680Z,79.8
2024-04-19T04:33:57.873Z,80.6
2024-04-19T04:35:14.066Z,79.9
2024-04-19T04:36:30.260Z,80.6
2024-04-19T04:37:46.454Z,80.6
2024-04-19T04:39:02.647Z,80.9
2024-04-19T04:40:18.841Z,80.6
2024-04-19T04:41:35.035Z,80.7
2024-04-19T04:42:51.229Z,81
2024-04-19T04:44:07.423Z,81.1
2024-04-19T04:45:23.617Z,80.5
2024-04-19T04:46:39.810Z,80.6
2024-04-19T04:47:56.004Z,80.7
2024-04-19T04:49:11.214Z,80.7
2024-04-19T04:50:27.407Z,80.4
2024-04-19T04:51:43.601Z,80.6
2024-04-19T04:52:59.795Z,80.8
2024-04-19T04:54:15.988Z,80.4
2024-04-19T04:55:32.182Z,80.9
2024-04-19T04:56:48.376Z,81
2024-04-19T04:58:04.569Z,81
2024-04-19T04:59:17.811Z,81.3
2024-04-19T05:00:36.957Z,81.7
2024-04-19T05:01:53.150Z,81.8
2024-04-19T05:03:09.344Z,81.4
2024-04-19T05:04:25.538Z,81.6
2024-04-19T05:05:40.748Z,82.1
2024-04-19T05:06:56.941Z,81.9
2024-04-19T05:08:13.135Z,82
2024-04-19T05:09:29.329Z,82.6
2024-04-19T05:10:45.522Z,82.3
2024-04-19T05:12:01.716Z,82.9
2024-04-19T05:13:17.909Z,82.8
2024-04-19T05:14:34.103Z,82.2
2024-04-19T05:15:50.298Z,82.7
2024-04-19T05:17:06.491Z,82.8
2024-04-19T05:18:22.685Z,82.7
2024-04-19T05:19:38.879Z,83.2
2024-04-19T05:20:55.072Z,83.3
2024-04-19T05:22:10.282Z,83.5
2024-04-19T05:23:26.476Z,83.7
2024-04-19T05:24:42.670Z,84.1
2024-04-19T05:25:58.863Z,84.6
2024-04-19T05:27:15.057Z,84.5
2024-04-19T05:28:31.251Z,84.2
2024-04-19T05:29:47.445Z,84.7
2024-04-19T05:31:03.638Z,84.5
2024-04-19T05:32:19.832Z,84.8
2024-04-19T05:33:36.026Z,84.6
2024-04-19T05:34:52.220Z,84.6
2024-04-19T05:36:08.413Z,85
2024-04-19T05:37:24.607Z,85.3
2024-04-19T05:38:39.818Z,85
2024-04-19T05:39:56.011Z,85.1
2024-04-19T05:41:12.204Z,85.1
2024-04-19T05:42:28.398Z,85.7
2024-04-19T05:43:44.592Z,85.4
2024-04-19T05:45:00.786Z,85.3
2024-04-19T05:46:16.979Z,85.4
2024-04-19T05:47:33.173Z,85.1
2024-04-19T05:48:49.368Z,85.2
2024-04-19T05:50:05.562Z,85.6
2024-04-19T05:51:21.755Z,85.9
2024-04-19T05:52:37.949Z,86.1
2024-04-19T05:53:54.143Z,85.7
2024-04-19T05:55:09.352Z,85.4
2024-04-19T05:56:25.546Z,85.9
2024-04-19T05:57:41.740Z,86
2024-04-19T05:58:57.933Z,85.9
2024-04-19T06:00:14.127Z,85.9
2024-04-19T06:01:30.321Z,86.3
2024-04-19T06:02:46.514Z,86.1
2024-04-19T06:04:02.708Z,86.1
2024-04-19T06:05:18.902Z,85.8
2024-04-19T06:06:35.095Z,85.7
2024-04-19T06:07:51.289Z,86.1
2024-04-19T06:09:07.483Z,86.4
2024-04-19T06:10:23.676Z,86.7
2024-04-19T06:11:38.887Z,86
2024-04-19T06:12:55.080Z,86.5
2024-04-19T06:14:11.274Z,86.5
2024-04-19T06:15:27.467Z,86
2024-04-19T06:16:43.661Z,86.2
2024-04-19T06:17:59.855Z,86.4
2024-04-19T06:19:16.048Z,86.7
2024-04-19T06:20:32.242Z,86.3
2024-04-19T06:21:48.437Z,86.5
2024-04-19T06:23:04.630Z,86.2
2024-04-19T06:24:20.824Z,86
2024-04-19T06:25:37.018Z,86.1
2024-04-19T06:26:53.211Z,86.6
2024-04-19T06:28:08.421Z,86.5
2024-04-19T06:29:24.615Z,86.4
2024-04-19T06:30:40.809Z,86.3
2024-04-19T06:31:57.002Z,86
2024-04-19T06:33:13.196Z,85.7
2024-04-19T06:34:29.636Z,85.9
2024-04-19T06:35:38.000Z,86
2024-04-19T06:37:01.777Z,86
2024-04-19T06:38:18.220Z,85.6
2024-04-19T06:39:34.164Z,86.2
2024-04-19T06:40:50.358Z,86.2
2024-04-19T06:42:06.551Z,86.2
2024-04-19T06:43:22.745Z,86.2
2024-04-19T06:44:37.956Z,85.7
2024-04-19T06:45:54.149Z,86.2
2024-04-19T06:47:10.342Z,85.6
2024-04-19T06:48:26.536Z,85.9
2024-04-19T06:49:42.730Z,85.4
2024-04-19T06:50:58.923Z,85.4
2024-04-19T06:52:15.117Z,85.8
2024-04-19T06:53:31.311Z,85.5
2024-04-19T06:54:47.505Z,85
2024-04-19T06:56:03.699Z,85.5
2024-04-19T06:57:19.892Z,85.3
2024-04-19T06:58:36.086Z,84.9
2024-04-19T06:59:52.279Z,85.3
2024-04-19T07:01:07.489Z,85.2
2024-04-19T07:02:23.931Z,85.1
2024-04-19T07:03:40.120Z,84.7
2024-04-19T07:04:56.070Z,85
2024-04-19T07:06:12.264Z,84.7
2024-04-19T07:07:28.457Z,84.7
2024-04-19T07:08:44.651Z,84.9
2024-04-19T07:10:00.845Z,84.7
2024-04-19T07:11:17.039Z,84.8
2024-04-19T07:12:33.232Z,84.7
2024-04-19T07:13:49.426Z,84.5
2024-04-19T07:15:05.619Z,84.9
2024-04-19T07:16:21.813Z,84.8
2024-04-19T07:17:37.023Z,85.1
2024-04-19T07:18:53.469Z,84.7
2024-04-19T07:20:09.409Z,84.4
2024-04-19T07:21:25.849Z,84.1
2024-04-19T07:22:41.800Z,84
2024-04-19T07:23:57.994Z,83.3
2024-04-19T07:25:14.189Z,83.6
2024-04-19T07:26:30.634Z,83.7
2024-04-19T07:27:46.579Z,83.8
2024-04-19T07:29:02.774Z,83.1
2024-04-19T07:30:18.968Z,83
2024-04-19T07:31:35.163Z,83
2024-04-19T07:32:51.358Z,82.7
2024-04-19T07:34:06.569Z,82.8
2024-04-19T07:35:22.764Z,82.7
2024-04-19T07:36:38.958Z,82.7
2024-04-19T07:37:55.153Z,82.8
2024-04-19T07:39:11.349Z,82.6
2024-04-19T07:40:27.545Z,82.9
2024-04-19T07:41:43.739Z,83.3
2024-04-19T07:42:59.934Z,82.9
2024-04-19T07:44:16.128Z,83.2
2024-04-19T07:45:32.324Z,83.2
2024-04-19T07:46:48.519Z,83.2
2024-04-19T07:48:04.715Z,83.2
2024-04-19T07:49:20.910Z,82.9
2024-04-19T07:50:36.122Z,82.5
2024-04-19T07:51:52.564Z,82.5
2024-04-19T07:53:08.513Z,82.4
2024-04-19T07:54:24.708Z,82.2
2024-04-19T07:55:40.904Z,82.1
2024-04-19T07:56:57.099Z,81.9
2024-04-19T07:58:13.295Z,81.6
2024-04-19T07:59:29.491Z,81.6
2024-04-19T08:00:38.000Z,81.7
2024-04-19T08:02:01.882Z,81.6
2024-04-19T08:03:18.078Z,81.5
2024-04-19T08:04:34.273Z,82
2024-04-19T08:05:50.469Z,81.8
2024-04-19T08:07:05.680Z,81.6
2024-04-19T08:08:15.000Z,81.3
2024-04-19T08:09:38.071Z,81.2
2024-04-19T08:10:54.267Z,81.5
2024-04-19T08:12:10.462Z,81.2
2024-04-19T08:13:26.658Z,80.8
2024-04-19T08:14:42.854Z,80.5
2024-04-19T08:15:59.050Z,80.9
2024-04-19T08:17:15.245Z,80.9
2024-04-19T08:18:31.441Z,80.9
2024-04-19T08:19:47.636Z,80.8
2024-04-19T08:21:03.832Z,81.1
2024-04-19T08:22:20.028Z,81.1
2024-04-19T08:23:35.239Z,81
2024-04-19T08:24:51.434Z,80.8
2024-04-19T08:26:07.630Z,81.1
2024-04-19T08:27:23.825Z,81.3
2024-04-19T08:28:40.021Z,81.5
2024-04-19T08:29:56.217Z,81.9
2024-04-19T08:31:11.434Z,82.4
2024-04-19T08:32:27.628Z,82.5
2024-04-19T08:33:43.824Z,82.6
2024-04-19T08:35:00.019Z,82.6
2024-04-19T08:36:16.215Z,82.5
2024-04-19T08:37:32.410Z,82.7
2024-04-19T08:38:48.606Z,82.8
2024-04-19T08:40:04.802Z,82.7
2024-04-19T08:41:20.998Z,82.6
2024-04-19T08:42:37.193Z,82.5
2024-04-19T08:43:53.389Z,82.5
2024-04-19T08:45:09.584Z,83
2024-04-19T08:46:25.780Z,82.9
2024-04-19T08:47:34.000Z,82.8
2024-04-19T08:48:57.187Z,82.5
2024-04-19T08:50:06.000Z,82.7
2024-04-19T08:51:29.579Z,82.8
2024-04-19T08:52:45.774Z,82.8
2024-04-19T08:54:01.970Z,82.7
2024-04-19T08:55:18.165Z,82.6
2024-04-19T08:56:34.361Z,82.1
2024-04-19T08:57:50.556Z,82.2
2024-04-19T08:59:06.752Z,81.4
2024-04-19T09:00:22.948Z,81.6
2024-04-19T09:01:39.144Z,81
2024-04-19T09:02:55.339Z,81.4
2024-04-19T09:04:10.551Z,81
2024-04-19T09:05:26.745Z,81.3
2024-04-19T09:06:42.941Z,81
2024-04-19T09:07:59.137Z,81.1
2024-04-19T09:10:31.528Z,80.5
2024-04-19T09:11:47.724Z,80.7
2024-04-19T09:13:03.919Z,80
2024-04-19T09:14:20.115Z,80.1
2024-04-19T09:15:36.310Z,79.9
2024-04-19T09:16:52.506Z,79.3
2024-04-19T09:18:08.702Z,78.9
2024-04-19T09:19:24.898Z,79.5
2024-04-19T09:20:40.109Z,79.3
2024-04-19T09:21:56.305Z,79.9
2024-04-19T09:23:12.500Z,79.1
2024-04-19T09:24:28.696Z,78.4
2024-04-19T09:25:44.891Z,79.1
2024-04-19T09:27:01.087Z,78.4
2024-04-19T09:28:17.282Z,79.4
2024-04-19T09:29:33.478Z,79.1
2024-04-19T09:30:49.673Z,79.8
2024-04-19T09:32:05.869Z,79.5
2024-04-19T09:33:22.308Z,79.9
2024-04-19T09:34:38.260Z,79.9
2024-04-19T09:35:54.456Z,80.8
2024-04-19T09:37:09.667Z,81.1
2024-04-19T09:38:25.862Z,81.4
2024-04-19T09:39:42.058Z,81.7
2024-04-19T09:40:58.253Z,81.9
2024-04-19T09:42:14.449Z,82.1
2024-04-19T09:43:30.644Z,82
2024-04-19T09:44:46.840Z,81.8
2024-04-19T09:45:56.000Z,82.6
2024-04-19T09:47:19.231Z,82.7
2024-04-19T09:48:35.426Z,82.5
2024-04-19T09:49:51.622Z,82.4
2024-04-19T09:51:07.817Z,82.8
2024-04-19T09:52:24.013Z,82.8
2024-04-19T09:53:39.224Z,82.8
2024-04-19T09:54:55.668Z,82.8
2024-04-19T09:56:11.615Z,83.1
2024-04-19T09:57:27.811Z,83.3
2024-04-19T09:58:44.007Z,83.8
2024-04-19T10:00:00.202Z,84
2024-04-19T10:01:16.398Z,84
2024-04-19T10:02:32.593Z,83.9
2024-04-19T10:03:48.789Z,84.3
2024-04-19T10:05:04.984Z,84.1
2024-04-19T10:06:21.180Z,83.7
2024-04-19T10:07:37.376Z,84.2
2024-04-19T10:08:53.571Z,84.1
2024-04-19T10:10:01.000Z,83.3
2024-04-19T10:11:24.977Z,83.4
2024-04-19T10:12:41.173Z,82.6
2024-04-19T10:13:57.368Z,82.4
2024-04-19T10:15:13.564Z,82.6
2024-04-19T10:16:29.759Z,82.8
2024-04-19T10:17:45.955Z,82
2024-04-19T10:19:02.150Z,82.1
2024-04-19T10:20:18.346Z,81.5
2024-04-19T10:21:34.541Z,81.6
2024-04-19T10:22:50.737Z,81.5
2024-04-19T10:24:06.932Z,81.1
2024-04-19T10:25:23.128Z,81
2024-04-19T10:26:38.339Z,80.7
2024-04-19T10:27:54.535Z,80.5
2024-04-19T10:29:10.731Z,79.8
2024-04-19T10:30:26.926Z,79.5
2024-04-19T10:31:43.122Z,79.6
2024-04-19T10:32:59.317Z,79.7
2024-04-19T10:34:15.512Z,79
2024-04-19T10:35:31.708Z,78.4
2024-04-19T10:36:47.904Z,78.9
2024-04-19T10:38:04.099Z,77.3
2024-04-19T10:39:20.295Z,77.6
2024-04-19T10:40:36.490Z,77.6
2024-04-19T10:41:52.686Z,77.2
2024-04-19T10:43:07.897Z,78
2024-04-19T10:44:24.092Z,76.8
2024-04-19T10:45:40.288Z,77.4
2024-04-19T10:46:56.483Z,77.3
2024-04-19T10:48:12.679Z,76.5
2024-04-19T10:49:28.874Z,76.8
2024-04-19T10:50:45.070Z,76.4
2024-04-19T10:52:01.265Z,76.2
2024-04-19T10:53:17.461Z,76.7
2024-04-19T10:54:33.656Z,76.6
2024-04-19T10:55:49.852Z,74.6
2024-04-19T10:57:06.047Z,74.2
2024-04-19T10:58:22.243Z,73.1
2024-04-19T10:59:37.454Z,72.8
2024-04-19T11:00:53.650Z,74.2
2024-04-19T11:02:09.845Z,74.4
2024-04-19T11:03:26.289Z,75.9
2024-04-19T11:04:42.236Z,77.5
2024-04-19T11:05:58.432Z,77.7
2024-04-19T11:07:14.627Z,77.7
2024-04-19T11:08:30.823Z,77.6
2024-04-19T11:09:47.018Z,77.6
2024-04-19T11:11:03.214Z,77.4
2024-04-19T11:12:19.409Z,78
2024-04-19T11:13:35.605Z,79.1
2024-04-19T11:14:51.800Z,79.8
2024-04-19T11:16:07.012Z,80.2
2024-04-19T11:17:23.206Z,81.7
2024-04-19T11:18:39.402Z,82
2024-04-19T11:19:55.597Z,83.2
2024-04-19T11:21:11.793Z,84.4
2024-04-19T11:22:27.988Z,84.7
2024-04-19T11:23:44.184Z,85.3
2024-04-19T11:25:00.379Z,84.7
2024-04-19T11:26:16.575Z,85
2024-04-19T11:27:32.770Z,83.9
2024-04-19T11:28:48.966Z,85.1
2024-04-19T11:30:05.161Z,84.3
2024-04-19T11:31:21.357Z,84.5
2024-04-19T11:32:36.568Z,84.7
2024-04-19T11:33:52.764Z,84.1
2024-04-19T11:35:08.960Z,84.7
2024-04-19T11:36:25.155Z,84.8
2024-04-19T11:37:41.351Z,84.1
2024-04-19T11:38:57.547Z,84.3
2024-04-19T11:40:13.742Z,84.4
2024-04-19T11:41:29.938Z,83.7
2024-04-19T11:42:46.133Z,84.1
2024-04-19T11:44:02.329Z,83.8
2024-04-19T11:45:18.524Z,83.4
2024-04-19T11:46:34.720Z,82.8
2024-04-19T11:47:50.915Z,83.7
2024-04-19T11:49:06.127Z,82.4
2024-04-19T11:50:22.322Z,83.3
2024-04-19T11:51:38.518Z,83
2024-04-19T11:52:54.713Z,83.4
2024-04-19T11:54:10.909Z,82.2
2024-04-19T11:55:27.104Z,83.3
2024-04-19T11:56:43.300Z,84
2024-04-19T11:57:59.495Z,83.2
2024-04-19T11:59:15.691Z,83.8
2024-04-19T12:00:31.886Z,83.2
2024-04-19T12:01:48.082Z,82.8
2024-04-19T12:03:04.277Z,83.4
2024-04-19T12:04:20.473Z,83
2024-04-19T12:05:29.000Z,82
2024-04-19T12:06:51.881Z,81.7
2024-04-19T12:08:08.076Z,81.3
2024-04-19T12:09:24.272Z,81.3
2024-04-19T12:10:40.467Z,81.4
2024-04-19T12:11:56.663Z,82.1
2024-04-19T12:13:12.858Z,81.3
2024-04-19T12:14:29.054Z,81.6
2024-04-19T12:15:45.249Z,81.9
2024-04-19T12:17:01.445Z,81.5
2024-04-19T12:18:17.641Z,81.5
2024-04-19T12:19:33.837Z,81.3
2024-04-19T12:20:50.032Z,80.9
2024-04-19T12:22:06.228Z,81.3
2024-04-19T12:23:21.439Z,81.3
2024-04-19T12:24:30.000Z,81.7
2024-04-19T12:25:53.830Z,82
2024-04-19T12:27:10.027Z,82.8
2024-04-19T12:28:26.222Z,82.6
2024-04-19T12:29:42.418Z,82.3
2024-04-19T12:30:58.613Z,82.9
2024-04-19T12:32:14.809Z,82.5
2024-04-19T12:33:31.004Z,83.3
2024-04-19T12:34:47.200Z,84.4
2024-04-19T12:36:03.395Z,85.3
2024-04-19T12:37:19.591Z,86.5
2024-04-19T12:38:35.787Z,89.7
2024-04-19T12:39:51.000Z,92.8
2024-04-19T12:41:07.195Z,95.9
2024-04-19T12:42:23.391Z,97.3
2024-04-19T12:43:39.586Z,96.8
2024-04-19T12:44:56.027Z,97.1
2024-04-19T12:46:11.244Z,95.7
2024-04-19T12:47:27.195Z,95.5
2024-04-19T12:48:43.390Z,94.5
2024-04-19T12:49:59.586Z,94.5
2024-04-19T12:51:15.782Z,93.9
2024-04-19T12:52:31.978Z,94.1
2024-04-19T12:53:48.173Z,93.9
2024-04-19T12:55:04.369Z,93.1
2024-04-19T12:56:20.564Z,93.7
2024-04-19T12:57:36.760Z,93.8
2024-04-19T12:58:52.955Z,93.6
2024-04-19T13:00:09.152Z,94.1
2024-04-19T13:01:25.348Z,94
2024-04-19T13:02:40.560Z,93.7
2024-04-19T13:03:56.756Z,93.1
2024-04-19T13:05:12.952Z,93.1
2024-04-19T13:06:29.147Z,93.3
2024-04-19T13:07:45.343Z,93.5
2024-04-19T13:09:01.538Z,94.7
2024-04-19T13:10:17.734Z,97.4
2024-04-19T13:11:33.930Z,100
2024-04-19T13:12:50.126Z,100
2024-04-19T13:14:06.321Z,100
2024-04-19T13:15:22.517Z,100
2024-04-19T13:16:38.712Z,100
2024-04-19T13:17:54.908Z,100
2024-04-19T13:19:11.103Z,100
2024-04-19T13:20:26.315Z,100
2024-04-19T13:21:42.511Z,100
2024-04-19T13:22:58.707Z,100
2024-04-19T13:24:15.029Z,100
2024-04-19T13:25:31.225Z,100
2024-04-19T13:26:47.420Z,100
2024-04-19T13:28:03.616Z,100
2024-04-19T13:29:19.811Z,99.5
2024-04-19T13:30:36.007Z,99
2024-04-19T13:31:52.202Z,98.6
2024-04-19T13:33:08.398Z,98.5
2024-04-19T13:34:24.594Z,98.6
2024-04-19T13:35:40.790Z,98.2
2024-04-19T13:36:56.001Z,97.7
2024-04-19T13:38:12.197Z,97.6
2024-04-19T13:39:28.392Z,97.3
2024-04-19T13:40:44.589Z,97
2024-04-19T13:42:00.785Z,96.8
2024-04-19T13:43:16.981Z,96.5
2024-04-19T13:44:33.176Z,95.6
2024-04-19T13:45:49.372Z,95.2
2024-04-19T13:47:05.567Z,94.5
2024-04-19T13:48:21.763Z,94.6
2024-04-19T13:49:37.958Z,94.3
2024-04-19T13:50:54.154Z,94
2024-04-19T13:52:10.350Z,93.7
2024-04-19T13:53:26.546Z,93.7
2024-04-19T13:54:41.757Z,93.8
2024-04-19T13:55:57.953Z,93.5
2024-04-19T13:57:14.148Z,93.3
2024-04-19T13:58:30.344Z,92.7
2024-04-19T13:59:46.539Z,92.5
2024-04-19T14:01:02.991Z,92.5
2024-04-19T14:02:18.932Z,92.5
2024-04-19T14:03:35.128Z,93.7
2024-04-19T14:04:51.323Z,90.6
2024-04-19T14:06:07.520Z,91.1
2024-04-19T14:07:23.715Z,92.3
2024-04-19T14:08:39.912Z,92.4
2024-04-19T14:09:56.108Z,94
2024-04-19T14:11:11.321Z,95.4
2024-04-19T14:12:27.516Z,97.3
2024-04-19T14:13:43.713Z,97.3
2024-04-19T14:15:00.154Z,97.8
2024-04-19T14:16:16.104Z,98.4
2024-04-19T14:17:32.299Z,98.5
2024-04-19T14:18:48.495Z,98.6
2024-04-19T14:20:04.691Z,98.6
2024-04-19T14:21:20.887Z,97.7
2024-04-19T14:22:37.082Z,97.5
2024-04-19T14:23:53.278Z,97.1
2024-04-19T14:25:09.473Z,97.5
2024-04-19T14:26:25.669Z,97.8
2024-04-19T14:27:40.880Z,97.4
2024-04-19T14:28:57.077Z,96.1
2024-04-19T14:30:13.272Z,97
2024-04-19T14:31:29.469Z,96.9
2024-04-19T14:32:45.916Z,96.8
2024-04-19T14:34:01.860Z,96.1
2024-04-19T14:35:18.055Z,95.7
2024-04-19T14:36:34.252Z,96
2024-04-19T14:37:50.696Z,96
2024-04-19T14:39:06.644Z,96
2024-04-19T14:40:22.841Z,95.6
2024-04-19T14:41:39.037Z,95.1
2024-04-19T14:42:55.232Z,95
2024-04-19T14:44:10.445Z,95.3
2024-04-19T14:45:26.640Z,94.8
2024-04-19T14:46:42.836Z,95.1
2024-04-19T14:47:59.032Z,95.1
2024-04-19T14:49:15.228Z,94.8
2024-04-19T14:50:31.425Z,94.8
2024-04-19T14:51:47.621Z,94.8
2024-04-19T14:53:03.817Z,94
2024-04-19T14:54:20.013Z,93.7
2024-04-19T14:55:36.209Z,94.2
2024-04-19T14:56:52.405Z,93.5
2024-04-19T14:58:08.601Z,94.1
2024-04-19T14:59:24.797Z,93.7
2024-04-19T15:00:40.009Z,93.6
2024-04-19T15:01:56.206Z,93.3
2024-04-19T15:03:12.401Z,93.4
2024-04-19T15:05:44.793Z,94.4
2024-04-19T15:07:00.989Z,94.1
2024-04-19T15:08:17.429Z,93.6
2024-04-19T15:09:33.381Z,93.7
2024-04-19T15:10:49.576Z,94
2024-04-19T15:12:05.773Z,94.5
2024-04-19T15:13:21.968Z,94
2024-04-19T15:14:38.164Z,95.3
2024-04-19T15:15:54.360Z,95.6
2024-04-19T15:17:09.825Z,95.3
2024-04-19T15:18:25.769Z,95.7
2024-04-19T15:19:41.965Z,95.7
2024-04-19T15:20:58.161Z,95.5
2024-04-19T15:22:14.357Z,95
2024-04-19T15:23:30.553Z,94.9
2024-04-19T15:24:46.749Z,94.4
2024-04-19T15:26:02.945Z,94.6
2024-04-19T15:27:19.384Z,92.9
2024-04-19T15:28:35.337Z,93.3
2024-04-19T15:29:51.533Z,93.7
2024-04-19T15:31:00.000Z,93.3
2024-04-19T15:32:23.924Z,92.9
2024-04-19T15:33:39.388Z,93.1
2024-04-19T15:34:55.332Z,92.7
2024-04-19T15:36:11.528Z,92.5
2024-04-19T15:37:27.724Z,92.7
2024-04-19T15:38:43.920Z,92.5
2024-04-19T15:40:00.116Z,92.6
2024-04-19T15:41:16.312Z,92.9
2024-04-19T15:42:32.508Z,92.4
2024-04-19T15:43:48.703Z,92.7
2024-04-19T15:45:04.900Z,92.6
2024-04-19T15:46:14.000Z,92.5
2024-04-19T15:47:37.292Z,92.6
2024-04-19T15:48:53.487Z,92.3
2024-04-19T15:50:08.700Z,92
2024-04-19T15:51:24.895Z,92.1
2024-04-19T15:52:41.350Z,92.1
2024-04-19T15:53:57.287Z,91.8
2024-04-19T15:55:13.483Z,91
2024-04-19T15:56:29.680Z,90.9
2024-04-19T15:57:45.876Z,91.3
2024-04-19T15:59:02.071Z,91.8
2024-04-19T16:00:18.267Z,91.8
2024-04-19T16:01:34.463Z,90.9
2024-04-19T16:02:50.659Z,90.9
2024-04-19T16:04:06.855Z,90.9
2024-04-19T16:05:23.300Z,90.8
2024-04-19T16:06:38.263Z,90.2
2024-04-19T16:07:54.459Z,91
2024-04-19T16:09:10.654Z,90.8
2024-04-19T16:10:26.850Z,91
2024-04-19T16:11:43.047Z,91.1
2024-04-19T16:12:59.243Z,90.7
2024-04-19T16:14:15.438Z,90.4
2024-04-19T16:15:31.635Z,89.5
2024-04-19T16:16:47.831Z,90.1
2024-04-19T16:18:04.028Z,90.4
2024-04-19T16:19:20.223Z,89.4
2024-04-19T16:20:36.419Z,88.4
2024-04-19T16:21:52.616Z,88.7
2024-04-19T16:23:07.829Z,89.3
2024-04-19T16:24:24.024Z,89.1
2024-04-19T16:25:40.220Z,89.5
2024-04-19T16:26:56.416Z,89.5
2024-04-19T16:28:12.612Z,88.6
2024-04-19T16:29:28.807Z,89.1
2024-04-19T16:30:45.003Z,89.5
2024-04-19T16:32:01.198Z,90.2
2024-04-19T16:33:17.394Z,89.5
2024-04-19T16:34:33.835Z,89.6
2024-04-19T16:35:49.787Z,90.2
2024-04-19T16:37:05.982Z,89.7
2024-04-19T16:38:22.178Z,90.5
2024-04-19T16:39:30.000Z,90.8
2024-04-19T16:40:53.585Z,89.3
2024-04-19T16:42:09.781Z,90.3
2024-04-19T16:43:25.977Z,90.8
2024-04-19T16:44:42.172Z,91.2
2024-04-19T16:45:58.368Z,90.4
2024-04-19T16:47:14.563Z,90
2024-04-19T16:48:30.760Z,90.7
2024-04-19T16:49:46.956Z,90.5
2024-04-19T16:51:03.154Z,90
2024-04-19T16:52:19.349Z,89.9
2024-04-19T16:53:35.545Z,89.4
2024-04-19T16:54:51.738Z,89
2024-04-19T16:56:06.949Z,89
2024-04-19T16:57:23.142Z,89.3
2024-04-19T16:58:39.335Z,89.5
2024-04-19T16:59:55.529Z,89
2024-04-19T17:01:10.745Z,89
2024-04-19T17:02:26.938Z,88.9
2024-04-19T17:03:43.132Z,88.4
2024-04-19T17:04:59.326Z,88.3
2024-04-19T17:06:15.519Z,88.6
2024-04-19T17:07:31.713Z,87.8
2024-04-19T17:08:47.907Z,87.7